Fork, Maryland
Current Conditions -  °F | °C
As of 11:50 AM on Saturday 25 Oct 2014 (Local Time) from KMTN Reporting Station
Few Clouds Few Clouds  
Wind Chill: 66°   Ceiling: Unl
Heat Index: 66°   Visibility: 10mi
Dew Point: 46°   Wind: 0mph
Humidity: 49%   Direction: NA
Pressure: 29.91"   Gusts: NA
Location:  39.47°N, 76.44°W
Report Text: KMTN 251550Z 00000KT 10SM FEW120 19/08 A2991
Loading
Personal Weather Stations






























Interactive Weather Map New forecast layout! Learn more

10-Day Weather Forecast

Advertisements
Track Severe Weather on mobile